JBU241 KATL-KMCO
Flight info
| Callsign | JBU241 |
|---|---|
| Flight time | 1h 5m |
| Altitude | 33000 |
| Route | SMLTZ3 WALET ZJAYX GRNCH5 |
| Aircraft | A320/M-SDE3FGHIRWY/LB1 |
Departure
| Time | 2026-05-04 22:49 |
|---|---|
| Airport | Hartsfield Jackson Atlanta International Airport (KATL) |
Arrival
| Time | 2026-05-04 23:54 |
|---|---|
| Airport | Orlando International Airport (KMCO) |
| Time | Latitude | Longitude | Altitude | Speed | Heading |
|---|---|---|---|---|---|
| 2026-05-04 22:15 | 33.63833 | -84.42636 | 1007 ft | 0 kts | 89° |
| 2026-05-04 22:38 | 33.63833 | -84.42659 | 1006 ft | 4 kts | 89° |
| 2026-05-04 22:38 | 33.63834 | -84.42691 | 1006 ft | 4 kts | 101° |
| 2026-05-04 22:38 | 33.63843 | -84.42720 | 1006 ft | 4 kts | 131° |
| 2026-05-04 22:39 | 33.63859 | -84.42733 | 1006 ft | 1 kts | 180° |
| 2026-05-04 22:39 | 33.63864 | -84.42733 | 1006 ft | 0 kts | 180° |
| 2026-05-04 22:42 | 33.63861 | -84.42733 | 1006 ft | 3 kts | 180° |
| 2026-05-04 22:43 | 33.63814 | -84.42733 | 1006 ft | 9 kts | 180° |
| 2026-05-04 22:43 | 33.63746 | -84.42733 | 1006 ft | 11 kts | 179° |
| 2026-05-04 22:43 | 33.63666 | -84.42717 | 1007 ft | 13 kts | 138° |
| 2026-05-04 22:43 | 33.63655 | -84.42609 | 1007 ft | 14 kts | 90° |
| 2026-05-04 22:44 | 33.63655 | -84.42485 | 1007 ft | 16 kts | 90° |
| 2026-05-04 22:44 | 33.63655 | -84.42344 | 1007 ft | 18 kts | 90° |
| 2026-05-04 22:44 | 33.63655 | -84.42191 | 1007 ft | 19 kts | 90° |
| 2026-05-04 22:44 | 33.63655 | -84.42025 | 1007 ft | 21 kts | 90° |
| 2026-05-04 22:45 | 33.63654 | -84.41840 | 1006 ft | 23 kts | 90° |
| 2026-05-04 22:45 | 33.63653 | -84.41418 | 1006 ft | 27 kts | 91° |
| 2026-05-04 22:45 | 33.63656 | -84.41200 | 1006 ft | 22 kts | 91° |
| 2026-05-04 22:46 | 33.63635 | -84.41048 | 1006 ft | 12 kts | 157° |
| 2026-05-04 22:46 | 33.63584 | -84.41024 | 1006 ft | 6 kts | 118° |
| 2026-05-04 22:46 | 33.63581 | -84.40958 | 1006 ft | 10 kts | 90° |
| 2026-05-04 22:46 | 33.63557 | -84.40914 | 1006 ft | 3 kts | 161° |
| 2026-05-04 22:47 | 33.63555 | -84.40913 | 1007 ft | 1 kts | 164° |
| 2026-05-04 22:47 | 33.63534 | -84.40910 | 1007 ft | 6 kts | 175° |
| 2026-05-04 22:47 | 33.63488 | -84.40914 | 1007 ft | 7 kts | 199° |
| 2026-05-04 22:47 | 33.63470 | -84.40952 | 1007 ft | 0 kts | 271° |
| 2026-05-04 22:48 | 33.63471 | -84.40979 | 1007 ft | 15 kts | 271° |
| 2026-05-04 22:48 | 33.63470 | -84.41412 | 1006 ft | 84 kts | 270° |
| 2026-05-04 22:49 | 33.63471 | -84.42345 | 1008 ft | 136 kts | 270° |
| 2026-05-04 22:49 | 33.63475 | -84.43635 | 1155 ft | 165 kts | 268° |
| 2026-05-04 22:49 | 33.63480 | -84.45056 | 1687 ft | 174 kts | 268° |
| 2026-05-04 22:49 | 33.63487 | -84.46511 | 2322 ft | 181 kts | 268° |
| 2026-05-04 22:50 | 33.63494 | -84.48113 | 2666 ft | 204 kts | 269° |
| 2026-05-04 22:50 | 33.63501 | -84.49873 | 3018 ft | 224 kts | 268° |
| 2026-05-04 22:50 | 33.63511 | -84.51851 | 3384 ft | 249 kts | 268° |
| 2026-05-04 22:50 | 33.63517 | -84.53999 | 4015 ft | 262 kts | 267° |
| 2026-05-04 22:51 | 33.63508 | -84.56206 | 4899 ft | 266 kts | 267° |
| 2026-05-04 22:51 | 33.63500 | -84.58436 | 5796 ft | 269 kts | 267° |
| 2026-05-04 22:51 | 33.63484 | -84.60693 | 6677 ft | 272 kts | 268° |
| 2026-05-04 22:51 | 33.63375 | -84.62961 | 7520 ft | 273 kts | 257° |
| 2026-05-04 22:52 | 33.62738 | -84.65102 | 8343 ft | 274 kts | 239° |
| 2026-05-04 22:52 | 33.61558 | -84.66897 | 9166 ft | 276 kts | 221° |
| 2026-05-04 22:52 | 33.59965 | -84.68185 | 10023 ft | 278 kts | 209° |
| 2026-05-04 22:52 | 33.58207 | -84.69094 | 10747 ft | 282 kts | 196° |
| 2026-05-04 22:53 | 33.56224 | -84.69405 | 11462 ft | 288 kts | 180° |
| 2026-05-04 22:53 | 33.54239 | -84.69113 | 12147 ft | 294 kts | 172° |
| 2026-05-04 22:53 | 33.52206 | -84.68715 | 12847 ft | 298 kts | 173° |
| 2026-05-04 22:53 | 33.50142 | -84.68320 | 13552 ft | 302 kts | 173° |
| 2026-05-04 22:54 | 33.48051 | -84.67927 | 14196 ft | 306 kts | 173° |
| 2026-05-04 22:54 | 33.45935 | -84.67535 | 14816 ft | 309 kts | 174° |
| 2026-05-04 22:54 | 33.43808 | -84.67070 | 15455 ft | 314 kts | 167° |
| 2026-05-04 22:54 | 33.41772 | -84.66062 | 16065 ft | 322 kts | 153° |
| 2026-05-04 22:55 | 33.39920 | -84.64407 | 16239 ft | 345 kts | 138° |
| 2026-05-04 22:55 | 33.38173 | -84.62313 | 16388 ft | 364 kts | 137° |
| 2026-05-04 22:55 | 33.36356 | -84.60142 | 16800 ft | 373 kts | 138° |
| 2026-05-04 22:55 | 33.34508 | -84.57939 | 17374 ft | 377 kts | 138° |
| 2026-05-04 22:56 | 33.32635 | -84.55716 | 17964 ft | 381 kts | 138° |
| 2026-05-04 22:56 | 33.30745 | -84.53483 | 18529 ft | 384 kts | 139° |
| 2026-05-04 22:56 | 33.28833 | -84.51231 | 19052 ft | 388 kts | 139° |
| 2026-05-04 22:56 | 33.26896 | -84.48953 | 19571 ft | 392 kts | 139° |
| 2026-05-04 22:57 | 33.24937 | -84.46655 | 20101 ft | 397 kts | 139° |
| 2026-05-04 22:57 | 33.22956 | -84.44334 | 20616 ft | 401 kts | 139° |
| 2026-05-04 22:57 | 33.20956 | -84.41989 | 21117 ft | 405 kts | 139° |
| 2026-05-04 22:57 | 33.18961 | -84.39646 | 21610 ft | 409 kts | 139° |
| 2026-05-04 22:58 | 33.16921 | -84.37251 | 22113 ft | 414 kts | 139° |
| 2026-05-04 22:58 | 33.14861 | -84.34828 | 22591 ft | 418 kts | 139° |
| 2026-05-04 22:58 | 33.12780 | -84.32381 | 23074 ft | 422 kts | 139° |
| 2026-05-04 22:58 | 33.10677 | -84.29912 | 23552 ft | 426 kts | 139° |
| 2026-05-04 22:59 | 33.08551 | -84.27423 | 23955 ft | 430 kts | 139° |
| 2026-05-04 22:59 | 33.06407 | -84.24917 | 24358 ft | 433 kts | 139° |
| 2026-05-04 22:59 | 33.04247 | -84.22393 | 24777 ft | 436 kts | 139° |
| 2026-05-04 22:59 | 33.02050 | -84.19882 | 25158 ft | 437 kts | 143° |
| 2026-05-04 23:00 | 32.99605 | -84.17731 | 25566 ft | 435 kts | 153° |
| 2026-05-04 23:00 | 32.96914 | -84.16086 | 25932 ft | 433 kts | 162° |
| 2026-05-04 23:00 | 32.94121 | -84.14888 | 26310 ft | 433 kts | 166° |
| 2026-05-04 23:00 | 32.91262 | -84.13715 | 26685 ft | 436 kts | 166° |
| 2026-05-04 23:01 | 32.88470 | -84.12569 | 27037 ft | 439 kts | 166° |
| 2026-05-04 23:01 | 32.85570 | -84.11373 | 27400 ft | 441 kts | 166° |
| 2026-05-04 23:01 | 32.82658 | -84.10171 | 27762 ft | 444 kts | 166° |
| 2026-05-04 23:01 | 32.79730 | -84.08969 | 28120 ft | 447 kts | 166° |
| 2026-05-04 23:02 | 32.76782 | -84.07760 | 28480 ft | 449 kts | 166° |
| 2026-05-04 23:02 | 32.73821 | -84.06543 | 28807 ft | 452 kts | 166° |
| 2026-05-04 23:02 | 32.70831 | -84.05315 | 29140 ft | 455 kts | 166° |
| 2026-05-04 23:02 | 32.67828 | -84.04083 | 29485 ft | 457 kts | 166° |
| 2026-05-04 23:03 | 32.64808 | -84.02844 | 29832 ft | 460 kts | 166° |
| 2026-05-04 23:03 | 32.61774 | -84.01604 | 30165 ft | 463 kts | 166° |
| 2026-05-04 23:03 | 32.58720 | -84.00357 | 30454 ft | 465 kts | 166° |
| 2026-05-04 23:03 | 32.55653 | -83.99102 | 30750 ft | 467 kts | 166° |
| 2026-05-04 23:04 | 32.52569 | -83.97839 | 31041 ft | 469 kts | 166° |
| 2026-05-04 23:04 | 32.49486 | -83.96576 | 31456 ft | 468 kts | 166° |
| 2026-05-04 23:04 | 32.46409 | -83.95318 | 31841 ft | 467 kts | 166° |
| 2026-05-04 23:04 | 32.43333 | -83.94064 | 32187 ft | 468 kts | 167° |
| 2026-05-04 23:05 | 32.40248 | -83.92809 | 32539 ft | 469 kts | 167° |
| 2026-05-04 23:05 | 32.37244 | -83.91377 | 32902 ft | 475 kts | 159° |
| 2026-05-04 23:05 | 32.34378 | -83.89389 | 33045 ft | 478 kts | 149° |
| 2026-05-04 23:05 | 32.31732 | -83.87046 | 33053 ft | 472 kts | 147° |
| 2026-05-04 23:06 | 32.26512 | -83.82390 | 33051 ft | 468 kts | 148° |
| 2026-05-04 23:06 | 32.21296 | -83.77769 | 33054 ft | 468 kts | 148° |
| 2026-05-04 23:07 | 32.16066 | -83.73157 | 33065 ft | 473 kts | 148° |
| 2026-05-04 23:07 | 32.10775 | -83.68497 | 33049 ft | 475 kts | 148° |
| 2026-05-04 23:08 | 32.05475 | -83.63821 | 33048 ft | 476 kts | 148° |
| 2026-05-04 23:08 | 32.00194 | -83.59171 | 33051 ft | 476 kts | 148° |
| 2026-05-04 23:09 | 31.94892 | -83.54508 | 33060 ft | 476 kts | 148° |
| 2026-05-04 23:09 | 31.89584 | -83.49850 | 33030 ft | 475 kts | 149° |
| 2026-05-04 23:10 | 31.84269 | -83.45195 | 33040 ft | 476 kts | 149° |
| 2026-05-04 23:10 | 31.78986 | -83.40569 | 33042 ft | 476 kts | 149° |
| 2026-05-04 23:11 | 31.73655 | -83.35908 | 33053 ft | 477 kts | 149° |
| 2026-05-04 23:11 | 31.68327 | -83.31269 | 33056 ft | 477 kts | 149° |
| 2026-05-04 23:12 | 31.62915 | -83.26800 | 33041 ft | 471 kts | 157° |
| 2026-05-04 23:12 | 31.57055 | -83.23434 | 33030 ft | 471 kts | 162° |
| 2026-05-04 23:13 | 31.51122 | -83.20124 | 33042 ft | 472 kts | 162° |
| 2026-05-04 23:13 | 31.45230 | -83.16821 | 33049 ft | 472 kts | 162° |
| 2026-05-04 23:14 | 31.39294 | -83.13500 | 33059 ft | 471 kts | 162° |
| 2026-05-04 23:14 | 31.33380 | -83.10197 | 33029 ft | 470 kts | 162° |
| 2026-05-04 23:15 | 31.27467 | -83.06901 | 33039 ft | 471 kts | 162° |
| 2026-05-04 23:15 | 31.21586 | -83.03636 | 33036 ft | 471 kts | 162° |
| 2026-05-04 23:16 | 31.15661 | -83.00347 | 33053 ft | 471 kts | 162° |
| 2026-05-04 23:16 | 31.09741 | -82.97057 | 33059 ft | 471 kts | 162° |
| 2026-05-04 23:17 | 31.03811 | -82.93771 | 33017 ft | 471 kts | 162° |
| 2026-05-04 23:17 | 30.97863 | -82.90480 | 33056 ft | 474 kts | 162° |
| 2026-05-04 23:18 | 30.91898 | -82.87189 | 33069 ft | 474 kts | 162° |
| 2026-05-04 23:18 | 30.86245 | -82.83038 | 33098 ft | 487 kts | 148° |
| 2026-05-04 23:19 | 30.80929 | -82.78206 | 33100 ft | 487 kts | 148° |
| 2026-05-04 23:19 | 30.75568 | -82.73370 | 33137 ft | 486 kts | 149° |
| 2026-05-04 23:20 | 30.70222 | -82.68560 | 33122 ft | 486 kts | 149° |
| 2026-05-04 23:20 | 30.64864 | -82.63745 | 33123 ft | 487 kts | 149° |
| 2026-05-04 23:21 | 30.59533 | -82.58957 | 33125 ft | 487 kts | 148° |
| 2026-05-04 23:21 | 30.54174 | -82.54142 | 33145 ft | 487 kts | 148° |
| 2026-05-04 23:22 | 30.48794 | -82.49322 | 33168 ft | 488 kts | 149° |
| 2026-05-04 23:22 | 30.43418 | -82.44507 | 33171 ft | 488 kts | 149° |
| 2026-05-04 23:23 | 30.38074 | -82.39725 | 33186 ft | 488 kts | 149° |
| 2026-05-04 23:23 | 30.32697 | -82.34923 | 33199 ft | 487 kts | 149° |
| 2026-05-04 23:24 | 30.27336 | -82.30152 | 33185 ft | 486 kts | 149° |
| 2026-05-04 23:24 | 30.21871 | -82.25624 | 33170 ft | 476 kts | 159° |
| 2026-05-04 23:25 | 30.15852 | -82.22892 | 33092 ft | 456 kts | 176° |
| 2026-05-04 23:25 | 30.09650 | -82.21638 | 33108 ft | 452 kts | 179° |
| 2026-05-04 23:26 | 30.03438 | -82.20410 | 33100 ft | 453 kts | 179° |
| 2026-05-04 23:26 | 29.97227 | -82.19170 | 33097 ft | 453 kts | 179° |
| 2026-05-04 23:27 | 29.91014 | -82.17928 | 32700 ft | 452 kts | 179° |
| 2026-05-04 23:27 | 29.87927 | -82.17311 | 32146 ft | 448 kts | 179° |
| 2026-05-04 23:27 | 29.84870 | -82.16700 | 31700 ft | 444 kts | 178° |
| 2026-05-04 23:28 | 29.81841 | -82.16095 | 31210 ft | 440 kts | 179° |
| 2026-05-04 23:28 | 29.78831 | -82.15494 | 30731 ft | 438 kts | 179° |
| 2026-05-04 23:28 | 29.75838 | -82.14898 | 30256 ft | 435 kts | 179° |
| 2026-05-04 23:28 | 29.72866 | -82.14308 | 29746 ft | 432 kts | 179° |
| 2026-05-04 23:29 | 29.69954 | -82.13726 | 29294 ft | 427 kts | 178° |
| 2026-05-04 23:29 | 29.67038 | -82.13142 | 28848 ft | 423 kts | 178° |
| 2026-05-04 23:29 | 29.64154 | -82.12567 | 28418 ft | 419 kts | 178° |
| 2026-05-04 23:29 | 29.61291 | -82.12000 | 27987 ft | 415 kts | 178° |
| 2026-05-04 23:30 | 29.58457 | -82.11441 | 27544 ft | 412 kts | 178° |
| 2026-05-04 23:30 | 29.55644 | -82.10888 | 27169 ft | 409 kts | 178° |
| 2026-05-04 23:30 | 29.52833 | -82.10337 | 26772 ft | 407 kts | 178° |
| 2026-05-04 23:30 | 29.50046 | -82.09789 | 26374 ft | 406 kts | 177° |
| 2026-05-04 23:31 | 29.47271 | -82.09240 | 25963 ft | 404 kts | 177° |
| 2026-05-04 23:31 | 29.44489 | -82.08692 | 25448 ft | 406 kts | 177° |
| 2026-05-04 23:31 | 29.41697 | -82.08145 | 24950 ft | 408 kts | 176° |
| 2026-05-04 23:31 | 29.38927 | -82.07603 | 24459 ft | 409 kts | 176° |
| 2026-05-04 23:32 | 29.36115 | -82.07050 | 23952 ft | 410 kts | 176° |
| 2026-05-04 23:32 | 29.33298 | -82.06494 | 23530 ft | 409 kts | 175° |
| 2026-05-04 23:32 | 29.30533 | -82.05683 | 22956 ft | 416 kts | 164° |
| 2026-05-04 23:32 | 29.27943 | -82.04211 | 22730 ft | 412 kts | 155° |
| 2026-05-04 23:33 | 29.25476 | -82.02618 | 22574 ft | 401 kts | 155° |
| 2026-05-04 23:33 | 29.23057 | -82.01084 | 22251 ft | 395 kts | 156° |
| 2026-05-04 23:33 | 29.20668 | -81.99589 | 21717 ft | 388 kts | 156° |
| 2026-05-04 23:33 | 29.18314 | -81.98125 | 20971 ft | 383 kts | 156° |
| 2026-05-04 23:34 | 29.15990 | -81.96681 | 20253 ft | 377 kts | 156° |
| 2026-05-04 23:34 | 29.13698 | -81.95250 | 19587 ft | 371 kts | 155° |
| 2026-05-04 23:34 | 29.11458 | -81.93848 | 19084 ft | 362 kts | 155° |
| 2026-05-04 23:34 | 29.09241 | -81.92459 | 18662 ft | 364 kts | 155° |
| 2026-05-04 23:35 | 29.07065 | -81.90983 | 18261 ft | 365 kts | 147° |
| 2026-05-04 23:35 | 29.05767 | -81.89769 | 18020 ft | 364 kts | 140° |
| 2026-05-04 23:35 | 29.03942 | -81.87806 | 17376 ft | 357 kts | 140° |
| 2026-05-04 23:35 | 29.02144 | -81.85872 | 16948 ft | 353 kts | 139° |
| 2026-05-04 23:36 | 29.00356 | -81.83957 | 16521 ft | 351 kts | 139° |
| 2026-05-04 23:36 | 28.98587 | -81.82052 | 16096 ft | 349 kts | 137° |
| 2026-05-04 23:36 | 28.96547 | -81.79231 | 15567 ft | 347 kts | 129° |
| 2026-05-04 23:36 | 28.95555 | -81.77753 | 15361 ft | 347 kts | 129° |
| 2026-05-04 23:37 | 28.94091 | -81.75576 | 15003 ft | 344 kts | 129° |
| 2026-05-04 23:37 | 28.92638 | -81.73419 | 14640 ft | 341 kts | 129° |
| 2026-05-04 23:37 | 28.91191 | -81.71282 | 14290 ft | 339 kts | 129° |
| 2026-05-04 23:37 | 28.89750 | -81.69167 | 13951 ft | 336 kts | 129° |
| 2026-05-04 23:38 | 28.88313 | -81.67071 | 13577 ft | 334 kts | 129° |
| 2026-05-04 23:38 | 28.86885 | -81.64989 | 13186 ft | 332 kts | 129° |
| 2026-05-04 23:38 | 28.85464 | -81.62921 | 12807 ft | 330 kts | 129° |
| 2026-05-04 23:38 | 28.84049 | -81.60872 | 12430 ft | 328 kts | 129° |
| 2026-05-04 23:39 | 28.82647 | -81.58831 | 12043 ft | 326 kts | 129° |
| 2026-05-04 23:39 | 28.81271 | -81.56813 | 11958 ft | 319 kts | 129° |
| 2026-05-04 23:39 | 28.79803 | -81.54905 | 11960 ft | 320 kts | 142° |
| 2026-05-04 23:39 | 28.77995 | -81.53436 | 11966 ft | 320 kts | 148° |
| 2026-05-04 23:40 | 28.76174 | -81.51964 | 11965 ft | 320 kts | 149° |
| 2026-05-04 23:40 | 28.74242 | -81.50713 | 11751 ft | 318 kts | 154° |
| 2026-05-04 23:40 | 28.72302 | -81.49562 | 11480 ft | 313 kts | 155° |
| 2026-05-04 23:40 | 28.70364 | -81.48447 | 11104 ft | 312 kts | 156° |
| 2026-05-04 23:41 | 28.68421 | -81.47339 | 10713 ft | 312 kts | 156° |
| 2026-05-04 23:41 | 28.66484 | -81.46230 | 10325 ft | 311 kts | 156° |
| 2026-05-04 23:41 | 28.64553 | -81.45116 | 9946 ft | 311 kts | 156° |
| 2026-05-04 23:41 | 28.62653 | -81.44014 | 9695 ft | 300 kts | 156° |
| 2026-05-04 23:42 | 28.60816 | -81.43041 | 9472 ft | 281 kts | 165° |
| 2026-05-04 23:42 | 28.58954 | -81.42604 | 9346 ft | 268 kts | 178° |
| 2026-05-04 23:42 | 28.57124 | -81.42425 | 9208 ft | 260 kts | 181° |
| 2026-05-04 23:42 | 28.55332 | -81.42422 | 8914 ft | 258 kts | 183° |
| 2026-05-04 23:43 | 28.53555 | -81.42428 | 8579 ft | 253 kts | 183° |
| 2026-05-04 23:43 | 28.51815 | -81.42428 | 8198 ft | 248 kts | 183° |
| 2026-05-04 23:43 | 28.50122 | -81.42425 | 7874 ft | 246 kts | 183° |
| 2026-05-04 23:43 | 28.48409 | -81.42423 | 7549 ft | 244 kts | 183° |
| 2026-05-04 23:44 | 28.46717 | -81.42420 | 7240 ft | 243 kts | 182° |
| 2026-05-04 23:44 | 28.45037 | -81.42419 | 6926 ft | 240 kts | 182° |
| 2026-05-04 23:44 | 28.43368 | -81.42420 | 6623 ft | 239 kts | 183° |
| 2026-05-04 23:44 | 28.41709 | -81.42420 | 6304 ft | 239 kts | 182° |
| 2026-05-04 23:45 | 28.40049 | -81.42419 | 5985 ft | 238 kts | 182° |
| 2026-05-04 23:45 | 28.38388 | -81.42416 | 5670 ft | 238 kts | 181° |
| 2026-05-04 23:45 | 28.36737 | -81.42414 | 5360 ft | 237 kts | 182° |
| 2026-05-04 23:45 | 28.35087 | -81.42412 | 5061 ft | 237 kts | 180° |
| 2026-05-04 23:46 | 28.33503 | -81.41983 | 4802 ft | 234 kts | 150° |
| 2026-05-04 23:46 | 28.32168 | -81.40998 | 4698 ft | 224 kts | 147° |
| 2026-05-04 23:46 | 28.30882 | -81.40011 | 4569 ft | 221 kts | 142° |
| 2026-05-04 23:46 | 28.29943 | -81.38659 | 4333 ft | 222 kts | 110° |
| 2026-05-04 23:47 | 28.29758 | -81.36922 | 3910 ft | 225 kts | 86° |
| 2026-05-04 23:47 | 28.29907 | -81.35137 | 3489 ft | 229 kts | 83° |
| 2026-05-04 23:47 | 28.30101 | -81.33340 | 3120 ft | 227 kts | 83° |
| 2026-05-04 23:47 | 28.30276 | -81.31779 | 2664 ft | 225 kts | 83° |
| 2026-05-04 23:48 | 28.30483 | -81.30017 | 2136 ft | 224 kts | 83° |
| 2026-05-04 23:48 | 28.30656 | -81.28310 | 1999 ft | 211 kts | 90° |
| 2026-05-04 23:48 | 28.30262 | -81.26805 | 1991 ft | 196 kts | 126° |
| 2026-05-04 23:48 | 28.29173 | -81.25943 | 2005 ft | 194 kts | 162° |
| 2026-05-04 23:49 | 28.27840 | -81.25722 | 2008 ft | 197 kts | 176° |
| 2026-05-04 23:49 | 28.26537 | -81.26213 | 2023 ft | 202 kts | 216° |
| 2026-05-04 23:49 | 28.25796 | -81.27464 | 2023 ft | 188 kts | 257° |
| 2026-05-04 23:49 | 28.25928 | -81.28833 | 1986 ft | 169 kts | 304° |
| 2026-05-04 23:50 | 28.26643 | -81.29835 | 2004 ft | 161 kts | 319° |
| 2026-05-04 23:50 | 28.27447 | -81.30691 | 2042 ft | 157 kts | 322° |
| 2026-05-04 23:50 | 28.28252 | -81.31509 | 2013 ft | 154 kts | 323° |
| 2026-05-04 23:50 | 28.29051 | -81.32311 | 2012 ft | 153 kts | 323° |
| 2026-05-04 23:51 | 28.29851 | -81.33107 | 2009 ft | 152 kts | 326° |
| 2026-05-04 23:51 | 28.30769 | -81.33668 | 1828 ft | 147 kts | 356° |
| 2026-05-04 23:51 | 28.31775 | -81.33726 | 1707 ft | 145 kts | 7° |
| 2026-05-04 23:51 | 28.32730 | -81.33508 | 1550 ft | 137 kts | 24° |
| 2026-05-04 23:52 | 28.33647 | -81.33179 | 1438 ft | 139 kts | 22° |
| 2026-05-04 23:52 | 28.34587 | -81.32906 | 1304 ft | 140 kts | 19° |
| 2026-05-04 23:52 | 28.35535 | -81.32737 | 1123 ft | 141 kts | 12° |
| 2026-05-04 23:52 | 28.36507 | -81.32625 | 965 ft | 140 kts | 8° |
| 2026-05-04 23:53 | 28.37455 | -81.32641 | 835 ft | 138 kts | 3° |
| 2026-05-04 23:53 | 28.38429 | -81.32685 | 700 ft | 140 kts | 7° |
| 2026-05-04 23:53 | 28.39402 | -81.32680 | 540 ft | 138 kts | 7° |
| 2026-05-04 23:53 | 28.40368 | -81.32677 | 383 ft | 139 kts | 7° |
| 2026-05-04 23:54 | 28.41321 | -81.32678 | 200 ft | 138 kts | 8° |
| 2026-05-04 23:54 | 28.42250 | -81.32677 | 105 ft | 122 kts | 7° |
| 2026-05-04 23:54 | 28.42943 | -81.32675 | 108 ft | 75 kts | 359° |
| 2026-05-04 23:54 | 28.43314 | -81.32679 | 110 ft | 40 kts | 359° |
| 2026-05-04 23:55 | 28.43588 | -81.32681 | 105 ft | 27 kts | 7° |
| 2026-05-04 23:55 | 28.43728 | -81.32579 | 106 ft | 24 kts | 53° |
| 2026-05-04 23:55 | 28.43871 | -81.32308 | 107 ft | 10 kts | 58° |
| 2026-05-04 23:56 | 28.43917 | -81.32223 | 109 ft | 14 kts | 58° |
| 2026-05-04 23:56 | 28.43972 | -81.32121 | 108 ft | 16 kts | 59° |
| 2026-05-04 23:56 | 28.43969 | -81.32012 | 111 ft | 15 kts | 152° |
| 2026-05-04 23:56 | 28.43852 | -81.32003 | 109 ft | 19 kts | 180° |
| 2026-05-04 23:57 | 28.43706 | -81.32001 | 107 ft | 23 kts | 179° |
| 2026-05-04 23:57 | 28.43534 | -81.31997 | 105 ft | 27 kts | 181° |
| 2026-05-04 23:57 | 28.43412 | -81.31967 | 102 ft | 16 kts | 123° |
| 2026-05-04 23:57 | 28.43447 | -81.31855 | 103 ft | 17 kts | 54° |
| 2026-05-04 23:58 | 28.43513 | -81.31743 | 102 ft | 18 kts | 71° |
| 2026-05-04 23:58 | 28.43513 | -81.31705 | 102 ft | 0 kts | 89° |
| 2026-05-04 23:58 | 28.43514 | -81.31695 | 102 ft | 4 kts | 85° |
| 2026-05-04 23:58 | 28.43528 | -81.31656 | 101 ft | 7 kts | 64° |
| 2026-05-04 23:59 | 28.43539 | -81.31598 | 102 ft | 8 kts | 90° |
| 2026-05-04 23:59 | 28.43541 | -81.31550 | 102 ft | 0 kts | 87° |